createdAt,value
2022-11-06T00:01:21.940Z,11.23
2022-11-06T00:03:48.453Z,9.48
2022-11-06T00:06:34.988Z,10.45
2022-11-06T00:09:04.178Z,11.20
2022-11-06T00:11:30.682Z,10.82
2022-11-06T00:13:57.537Z,11.07
2022-11-06T00:16:24.134Z,11.25
2022-11-06T00:18:50.742Z,10.90
2022-11-06T00:21:21.004Z,11.30
2022-11-06T00:23:47.726Z,10.55
2022-11-06T00:26:18.354Z,10.13
2022-11-06T00:28:45.173Z,11.25
2022-11-06T00:31:13.896Z,12.18
2022-11-06T00:33:40.380Z,11.43
2022-11-06T00:36:08.896Z,10.80
2022-11-06T00:38:35.498Z,11.38
2022-11-06T00:41:06.728Z,10.85
2022-11-06T00:43:34.006Z,9.70
2022-11-06T00:46:05.423Z,10.90
2022-11-06T00:48:31.889Z,10.48
2022-11-06T00:51:06.200Z,11.27
2022-11-06T00:53:32.647Z,9.65
2022-11-06T00:56:16.860Z,11.20
2022-11-06T00:58:44.119Z,10.38
2022-11-06T01:01:11.642Z,10.95
2022-11-06T01:03:39.125Z,10.35
2022-11-06T01:06:17.309Z,10.40
2022-11-06T01:08:44.106Z,10.50
2022-11-06T01:11:16.221Z,10.68
2022-11-06T01:13:43.908Z,10.93
2022-11-06T01:16:12.927Z,12.23
2022-11-06T01:18:40.476Z,11.15
2022-11-06T01:21:08.893Z,12.30
2022-11-06T01:23:35.815Z,12.07
2022-11-06T01:26:05.522Z,11.10
2022-11-06T01:28:32.118Z,12.32
2022-11-06T01:31:13.152Z,12.63
2022-11-06T01:33:40.014Z,11.45
2022-11-06T01:36:08.974Z,13.52
2022-11-06T01:38:35.436Z,13.23
2022-11-06T01:41:01.930Z,12.45
2022-11-06T01:43:51.332Z,13.10
2022-11-06T01:46:19.024Z,12.73
2022-11-06T01:48:56.662Z,12.70
2022-11-06T01:51:25.301Z,13.60
2022-11-06T01:53:52.335Z,12.20
2022-11-06T01:56:19.440Z,13.48
2022-11-06T01:58:46.893Z,12.40
2022-11-06T02:01:13.711Z,12.23
2022-11-06T02:03:44.606Z,13.82
2022-11-06T02:06:11.397Z,13.93
2022-11-06T02:08:37.925Z,12.25
2022-11-06T02:11:04.496Z,13.68
2022-11-06T02:14:09.697Z,13.88
2022-11-06T02:16:52.179Z,13.45
2022-11-06T02:19:31.784Z,14.45
2022-11-06T02:22:34.135Z,13.27
2022-11-06T02:25:12.593Z,15.07
2022-11-06T02:27:39.205Z,13.70
2022-11-06T02:30:07.699Z,13.10
2022-11-06T02:32:46.783Z,13.43
2022-11-06T02:35:22.627Z,13.05
2022-11-06T02:37:53.787Z,12.90
2022-11-06T02:40:21.420Z,13.93
2022-11-06T02:42:50.545Z,13.73
2022-11-06T02:45:18.722Z,14.07
2022-11-06T02:47:47.845Z,14.13
2022-11-06T02:50:35.682Z,14.45
2022-11-06T02:53:04.518Z,13.18
2022-11-06T02:55:40.370Z,13.45
2022-11-06T02:58:14.797Z,12.60
2022-11-06T03:00:45.202Z,13.48
2022-11-06T03:03:17.153Z,15.13
2022-11-06T03:05:51.919Z,15.05
2022-11-06T03:08:26.386Z,14.40
2022-11-06T03:11:01.580Z,13.85
2022-11-06T03:13:55.020Z,12.88
2022-11-06T03:16:33.601Z,13.63
2022-11-06T03:19:11.702Z,12.82
2022-11-06T03:22:13.933Z,13.80
2022-11-06T03:24:47.788Z,12.93
2022-11-06T03:27:21.987Z,12.65
2022-11-06T03:29:51.278Z,12.52
2022-11-06T03:32:27.065Z,12.30
2022-11-06T03:35:00.761Z,11.85
2022-11-06T03:37:32.352Z,13.07
2022-11-06T03:40:03.986Z,11.63
2022-11-06T03:42:31.603Z,9.75
2022-11-06T03:45:01.546Z,10.82
2022-11-06T03:47:48.449Z,12.00
2022-11-06T03:50:19.325Z,10.80
2022-11-06T03:53:00.197Z,11.80
2022-11-06T03:55:36.464Z,13.38
2022-11-06T03:58:06.476Z,13.13
2022-11-06T04:00:34.381Z,12.88
2022-11-06T04:03:05.497Z,11.73
2022-11-06T04:06:10.210Z,13.80
2022-11-06T04:08:55.696Z,13.60
2022-11-06T04:11:43.299Z,14.70
2022-11-06T04:14:10.896Z,13.82
2022-11-06T04:16:43.754Z,14.45
2022-11-06T04:19:20.934Z,12.15
2022-11-06T04:22:09.409Z,14.32
2022-11-06T04:25:13.517Z,14.68
2022-11-06T04:28:00.893Z,14.90
2022-11-06T04:30:31.078Z,14.18
2022-11-06T04:33:12.562Z,15.60
2022-11-06T04:35:58.453Z,15.63
2022-11-06T04:38:40.195Z,15.57
2022-11-06T04:41:34.976Z,15.80
2022-11-06T04:44:10.179Z,15.27
2022-11-06T04:46:49.689Z,15.27
2022-11-06T04:49:16.457Z,15.35
2022-11-06T04:51:44.378Z,15.90
2022-11-06T04:54:11.339Z,14.85
2022-11-06T04:56:42.838Z,16.05
2022-11-06T04:59:14.787Z,13.80
2022-11-06T05:01:41.381Z,13.85
2022-11-06T05:04:08.561Z,14.52
2022-11-06T05:06:35.014Z,12.75
2022-11-06T05:09:01.692Z,12.65
2022-11-06T05:11:28.137Z,13.25
2022-11-06T05:13:54.715Z,12.93
2022-11-06T05:16:21.231Z,12.02
2022-11-06T05:18:47.690Z,10.45
2022-11-06T05:21:32.744Z,10.13
2022-11-06T05:23:59.210Z,8.95
2022-11-06T05:26:25.679Z,9.23
2022-11-06T05:28:52.124Z,8.20
2022-11-06T05:31:18.559Z,9.02
2022-11-06T05:33:45.026Z,9.05
2022-11-06T05:36:11.506Z,8.38
2022-11-06T05:38:38.009Z,8.70
2022-11-06T05:41:04.534Z,8.70
2022-11-06T05:43:31.155Z,8.35
2022-11-06T05:45:58.171Z,8.65
2022-11-06T05:48:24.643Z,8.30
2022-11-06T05:50:51.098Z,8.50
2022-11-06T05:53:17.600Z,10.43
2022-11-06T05:55:46.738Z,9.90
2022-11-06T05:58:14.262Z,11.40
2022-11-06T06:00:41.021Z,11.68
2022-11-06T06:03:07.527Z,11.27
2022-11-06T06:05:34.063Z,12.65
2022-11-06T06:08:00.529Z,12.20
2022-11-06T06:10:26.989Z,13.02
2022-11-06T06:12:53.527Z,14.55
2022-11-06T06:15:20.008Z,14.40
2022-11-06T06:17:46.566Z,14.20
2022-11-06T06:20:13.032Z,16.20
2022-11-06T06:22:39.595Z,15.07
2022-11-06T06:25:12.187Z,16.45
2022-11-06T06:27:43.993Z,15.75
2022-11-06T06:30:11.129Z,16.10
2022-11-06T06:32:37.681Z,15.13
2022-11-06T06:35:04.457Z,16.13
2022-11-06T06:37:30.942Z,14.23
2022-11-06T06:39:57.398Z,14.60
2022-11-06T06:42:27.336Z,13.30
2022-11-06T06:47:23.967Z,13.50
2022-11-06T06:49:50.429Z,14.65
2022-11-06T06:52:16.903Z,14.50
2022-11-06T06:54:43.398Z,14.77
2022-11-06T06:57:10.031Z,13.88
2022-11-06T06:59:36.701Z,15.55
2022-11-06T07:02:03.307Z,13.13
2022-11-06T07:04:29.881Z,13.25
2022-11-06T07:06:56.372Z,13.32
2022-11-06T07:09:24.079Z,13.63
2022-11-06T07:11:50.982Z,12.70
2022-11-06T07:14:17.600Z,12.18
2022-11-06T07:16:44.076Z,13.32
2022-11-06T07:19:10.541Z,11.35
2022-11-06T07:21:37.072Z,11.30
2022-11-06T07:24:03.589Z,11.65
2022-11-06T07:26:30.160Z,10.30
2022-11-06T07:28:56.677Z,12.10
2022-11-06T07:31:23.123Z,10.23
2022-11-06T07:33:49.586Z,10.18
2022-11-06T07:36:16.153Z,9.73
2022-11-06T07:38:43.129Z,10.13
2022-11-06T07:41:14.962Z,9.68
2022-11-06T07:43:42.263Z,9.48
2022-11-06T07:46:10.704Z,8.68
2022-11-06T07:48:37.444Z,8.57
2022-11-06T07:51:05.899Z,8.60
2022-11-06T07:53:32.645Z,8.45
2022-11-06T07:55:59.122Z,9.30
2022-11-06T07:58:25.777Z,8.27
2022-11-06T08:00:54.010Z,7.70
2022-11-06T08:03:20.848Z,9.07
2022-11-06T08:05:47.452Z,8.85
2022-11-06T08:08:14.537Z,8.30
2022-11-06T08:10:43.546Z,10.23
2022-11-06T08:13:11.114Z,9.50
2022-11-06T08:15:38.623Z,9.80
2022-11-06T08:18:06.435Z,10.25
2022-11-06T08:20:32.895Z,11.15
2022-11-06T08:23:03.525Z,10.93
2022-11-06T08:25:30.953Z,10.85
2022-11-06T08:27:58.665Z,10.32
2022-11-06T08:30:26.546Z,10.25
2022-11-06T08:32:53.029Z,9.63
2022-11-06T08:35:19.728Z,9.27
2022-11-06T08:37:46.173Z,8.35
2022-11-06T08:40:12.705Z,9.02
2022-11-06T08:42:39.166Z,8.25
2022-11-06T08:45:06.352Z,9.30
2022-11-06T08:47:32.916Z,8.73
2022-11-06T08:49:59.377Z,8.90
2022-11-06T08:52:29.892Z,9.45
2022-11-06T08:54:59.331Z,9.77
2022-11-06T08:57:26.033Z,10.90
2022-11-06T08:59:52.484Z,9.23
2022-11-06T09:02:18.982Z,11.00
2022-11-06T09:04:45.501Z,10.23
2022-11-06T09:07:11.984Z,9.90
2022-11-06T09:09:38.671Z,9.20
2022-11-06T09:12:05.409Z,9.50
2022-11-06T09:14:33.750Z,11.80
2022-11-06T09:17:00.243Z,11.50
2022-11-06T09:19:26.744Z,11.85
2022-11-06T09:21:54.844Z,11.85
2022-11-06T09:24:37.563Z,9.93
2022-11-06T09:27:08.181Z,11.48
2022-11-06T09:29:34.671Z,10.93
2022-11-06T09:32:01.149Z,11.63
2022-11-06T09:34:27.608Z,11.82
2022-11-06T09:36:54.075Z,10.85
2022-11-06T09:39:25.736Z,11.82
2022-11-06T09:42:01.145Z,11.95
2022-11-06T09:44:59.246Z,12.18
2022-11-06T09:47:28.877Z,11.85
2022-11-06T09:49:56.314Z,11.60
2022-11-06T09:52:25.703Z,10.05
2022-11-06T09:54:56.718Z,11.82
2022-11-06T09:57:40.165Z,11.57
2022-11-06T10:00:07.945Z,11.23
2022-11-06T10:02:48.552Z,11.32
2022-11-06T10:05:25.285Z,11.45
2022-11-06T10:07:55.328Z,11.00
2022-11-06T10:10:27.548Z,10.23
2022-11-06T10:13:02.305Z,10.45
2022-11-06T10:15:43.605Z,10.32
2022-11-06T10:18:36.772Z,10.63
2022-11-06T10:21:20.091Z,11.38
2022-11-06T10:23:57.939Z,7.05
2022-11-06T10:26:34.083Z,10.85
2022-11-06T10:29:31.428Z,10.30
2022-11-06T10:32:08.493Z,10.57
2022-11-06T10:34:40.927Z,10.25
2022-11-06T10:37:14.986Z,11.18
2022-11-06T10:39:41.621Z,10.70
2022-11-06T10:42:16.456Z,11.00
2022-11-06T10:44:53.194Z,9.82
2022-11-06T10:47:21.901Z,9.77
2022-11-06T10:49:50.688Z,10.45
2022-11-06T10:52:38.644Z,11.40
2022-11-06T10:55:49.253Z,10.60
2022-11-06T10:58:18.178Z,10.70
2022-11-06T11:00:44.865Z,10.75
2022-11-06T11:03:26.411Z,10.75
2022-11-06T11:05:52.924Z,10.30
2022-11-06T11:08:28.418Z,10.35
2022-11-06T11:11:05.101Z,10.68
2022-11-06T11:13:32.793Z,10.00
2022-11-06T11:15:59.496Z,10.25
2022-11-06T11:18:34.331Z,10.43
2022-11-06T11:21:18.430Z,10.98
2022-11-06T11:23:46.052Z,11.30
2022-11-06T11:26:21.840Z,10.93
2022-11-06T11:28:56.408Z,11.23
2022-11-06T11:31:33.775Z,11.13
2022-11-06T11:34:03.781Z,12.00
2022-11-06T11:36:48.366Z,11.50
2022-11-06T11:39:17.544Z,11.55
2022-11-06T11:41:44.014Z,11.35
2022-11-06T11:44:13.486Z,10.68
2022-11-06T11:46:48.885Z,11.90
2022-11-06T11:49:33.392Z,10.57
2022-11-06T11:52:11.980Z,10.43
2022-11-06T11:54:39.733Z,10.27
2022-11-06T11:57:18.255Z,10.43
2022-11-06T11:59:57.306Z,9.98
2022-11-06T12:02:29.441Z,10.38
2022-11-06T12:04:58.993Z,10.23
2022-11-06T12:07:39.869Z,10.90
2022-11-06T12:10:35.952Z,10.02
2022-11-06T12:13:05.477Z,10.52
2022-11-06T12:15:43.727Z,11.13
2022-11-06T12:18:17.046Z,10.73
2022-11-06T12:20:54.200Z,9.85
2022-11-06T12:23:27.409Z,9.63
2022-11-06T12:26:27.122Z,8.77
2022-11-06T12:29:03.720Z,9.48
2022-11-06T12:32:09.852Z,10.30
2022-11-06T12:35:18.000Z,7.82
2022-11-06T12:37:56.438Z,7.90
2022-11-06T12:40:29.080Z,7.97
2022-11-06T12:43:18.775Z,7.63
2022-11-06T12:46:08.745Z,7.38
2022-11-06T12:48:50.433Z,7.53
2022-11-06T12:51:39.787Z,7.60
2022-11-06T12:54:47.585Z,6.35
2022-11-06T12:58:03.840Z,6.15
2022-11-06T13:00:36.726Z,6.68
2022-11-06T13:03:35.621Z,7.15
2022-11-06T13:06:20.097Z,6.82
2022-11-06T13:08:55.579Z,6.40
2022-11-06T13:11:45.228Z,7.55
2022-11-06T13:14:30.809Z,7.40
2022-11-06T13:17:15.865Z,6.50
2022-11-06T13:20:11.477Z,6.63
2022-11-06T13:22:56.543Z,6.40
2022-11-06T13:25:41.931Z,5.72
2022-11-06T13:28:34.322Z,6.03
2022-11-06T13:31:03.392Z,4.88
2022-11-06T13:33:39.959Z,5.07
2022-11-06T13:36:07.321Z,5.38
2022-11-06T13:38:37.270Z,5.57
2022-11-06T13:41:12.321Z,5.53
2022-11-06T13:43:48.858Z,5.80
2022-11-06T13:46:29.324Z,5.80
2022-11-06T13:49:01.694Z,5.75
2022-11-06T13:51:40.820Z,6.07
2022-11-06T13:54:24.134Z,6.00
2022-11-06T13:57:18.266Z,5.05
2022-11-06T14:03:00.729Z,5.97
2022-11-06T14:05:36.019Z,5.25
2022-11-06T14:08:05.066Z,6.90
2022-11-06T14:10:36.220Z,5.78
2022-11-06T14:13:05.146Z,7.20
2022-11-06T14:15:37.779Z,7.88
2022-11-06T14:18:04.793Z,4.95
2022-11-06T14:20:36.473Z,7.20
2022-11-06T14:23:31.012Z,7.10
2022-11-06T14:26:08.528Z,7.57
2022-11-06T14:28:37.513Z,6.72
2022-11-06T14:31:12.378Z,7.30
2022-11-06T14:33:51.461Z,7.38
2022-11-06T14:36:23.908Z,6.82
2022-11-06T14:38:51.120Z,7.97
2022-11-06T14:41:35.997Z,6.60
2022-11-06T14:44:09.220Z,6.45
2022-11-06T14:46:35.993Z,6.65
2022-11-06T14:49:42.174Z,6.90
2022-11-06T14:52:11.733Z,5.95
2022-11-06T14:54:40.764Z,6.93
2022-11-06T14:57:08.805Z,6.95
2022-11-06T14:59:37.953Z,6.60
2022-11-06T15:02:13.692Z,6.50
2022-11-06T15:04:56.834Z,6.15
2022-11-06T15:08:02.626Z,5.90
2022-11-06T15:10:43.663Z,5.47
2022-11-06T15:13:16.281Z,5.10
2022-11-06T15:15:44.352Z,5.80
2022-11-06T15:18:19.442Z,6.13
2022-11-06T15:20:51.850Z,5.20
2022-11-06T15:23:24.388Z,5.20
2022-11-06T15:26:20.676Z,5.07
2022-11-06T15:28:51.116Z,4.90
2022-11-06T15:31:18.960Z,4.65
2022-11-06T15:33:52.971Z,5.00
2022-11-06T15:36:22.587Z,4.10
2022-11-06T15:38:49.056Z,4.57
2022-11-06T15:41:21.233Z,4.45
2022-11-06T15:43:49.958Z,4.13
2022-11-06T15:46:25.542Z,4.13
2022-11-06T15:49:17.772Z,4.00
2022-11-06T15:51:52.355Z,3.65
2022-11-06T15:54:41.171Z,4.53
2022-11-06T15:57:23.685Z,3.60
2022-11-06T15:59:50.213Z,3.55
2022-11-06T16:02:25.012Z,3.42
2022-11-06T16:04:51.892Z,3.22
2022-11-06T16:07:19.375Z,3.40
2022-11-06T16:09:46.208Z,3.40
2022-11-06T16:12:14.997Z,3.63
2022-11-06T16:14:46.870Z,3.45
2022-11-06T16:17:21.333Z,2.55
2022-11-06T16:19:48.472Z,2.90
2022-11-06T16:22:20.005Z,2.38
2022-11-06T16:24:55.517Z,2.38
2022-11-06T16:27:23.460Z,2.78
2022-11-06T16:29:56.451Z,2.70
2022-11-06T16:32:26.272Z,2.20
2022-11-06T16:34:55.078Z,2.53
2022-11-06T16:37:27.585Z,2.63
2022-11-06T16:39:54.249Z,2.40
2022-11-06T16:42:30.721Z,2.53
2022-11-06T16:45:18.175Z,2.60
2022-11-06T16:48:07.052Z,2.80
2022-11-06T16:50:47.536Z,2.40
2022-11-06T16:53:19.318Z,2.10
2022-11-06T16:55:53.568Z,2.33
2022-11-06T16:58:20.480Z,3.00
2022-11-06T17:00:55.224Z,2.55
2022-11-06T17:03:22.524Z,2.20
2022-11-06T17:05:57.426Z,2.55
2022-11-06T17:08:27.257Z,2.70
2022-11-06T17:10:57.791Z,2.60
2022-11-06T17:13:29.024Z,2.78
2022-11-06T17:16:03.261Z,2.88
2022-11-06T17:18:31.793Z,2.92
2022-11-06T17:21:00.510Z,2.95
2022-11-06T17:23:27.884Z,2.65
2022-11-06T17:25:58.160Z,2.83
2022-11-06T17:28:24.615Z,2.97
2022-11-06T17:30:51.430Z,2.78
2022-11-06T17:33:17.905Z,2.60
2022-11-06T17:35:44.545Z,2.97
2022-11-06T17:38:14.467Z,2.80
2022-11-06T17:40:42.168Z,2.95
2022-11-06T17:43:08.675Z,3.00
2022-11-06T17:45:35.136Z,2.70
2022-11-06T17:48:01.604Z,2.92
2022-11-06T17:50:28.056Z,2.72
2022-11-06T17:52:54.525Z,2.70
2022-11-06T17:55:21.058Z,3.28
2022-11-06T17:57:47.562Z,2.88
2022-11-06T18:00:14.201Z,2.85
2022-11-06T18:03:00.390Z,3.10
2022-11-06T18:05:27.125Z,3.08
2022-11-06T18:07:53.576Z,3.20
2022-11-06T18:10:20.038Z,3.47
2022-11-06T18:12:51.123Z,3.30
2022-11-06T18:15:17.878Z,2.90
2022-11-06T18:17:45.490Z,3.00
2022-11-06T18:20:11.999Z,3.15
2022-11-06T18:22:38.461Z,3.25
2022-11-06T18:25:05.173Z,3.38
2022-11-06T18:27:31.680Z,3.28
2022-11-06T18:29:58.115Z,3.33
2022-11-06T18:32:25.658Z,3.83
2022-11-06T18:34:52.100Z,3.20
2022-11-06T18:37:18.557Z,3.03
2022-11-06T18:39:45.024Z,3.25
2022-11-06T18:42:11.478Z,3.33
2022-11-06T18:44:41.155Z,3.15
2022-11-06T18:47:07.649Z,3.40
2022-11-06T18:49:34.101Z,3.35
2022-11-06T18:52:00.641Z,3.20
2022-11-06T18:54:28.991Z,3.20
2022-11-06T18:56:55.443Z,2.83
2022-11-06T18:59:23.684Z,2.60
2022-11-06T19:01:50.235Z,2.80
2022-11-06T19:04:16.900Z,2.85
2022-11-06T19:06:43.438Z,3.08
2022-11-06T19:09:09.933Z,3.17
2022-11-06T19:11:36.392Z,3.08
2022-11-06T19:14:02.938Z,3.25
2022-11-06T19:16:29.589Z,2.70
2022-11-06T19:21:28.318Z,3.00
2022-11-06T19:24:00.237Z,3.05
2022-11-06T19:26:31.733Z,2.67
2022-11-06T19:29:00.000Z,3.00
2022-11-06T19:31:29.236Z,2.90
2022-11-06T19:33:56.747Z,2.63
2022-11-06T19:36:24.939Z,2.80
2022-11-06T19:38:51.443Z,3.08
2022-11-06T19:41:18.091Z,2.78
2022-11-06T19:43:44.643Z,2.88
2022-11-06T19:46:11.089Z,2.63
2022-11-06T19:48:38.074Z,2.35
2022-11-06T19:51:09.865Z,2.92
2022-11-06T19:53:36.326Z,2.85
2022-11-06T19:56:06.732Z,2.53
2022-11-06T19:58:33.218Z,2.88
2022-11-06T20:00:59.726Z,2.70
2022-11-06T20:03:26.212Z,2.90
2022-11-06T20:05:53.314Z,2.60
2022-11-06T20:08:19.766Z,3.05
2022-11-06T20:10:46.321Z,3.08
2022-11-06T20:13:13.114Z,3.20
2022-11-06T20:15:39.761Z,2.83
2022-11-06T20:18:06.221Z,3.10
2022-11-06T20:20:36.178Z,2.88
2022-11-06T20:23:03.296Z,2.78
2022-11-06T20:25:30.124Z,3.13
2022-11-06T20:27:56.744Z,3.00
2022-11-06T20:30:24.294Z,3.22
2022-11-06T20:32:50.759Z,2.95
2022-11-06T20:35:19.178Z,2.95
2022-11-06T20:37:45.651Z,3.25
2022-11-06T20:40:12.358Z,2.80
2022-11-06T20:42:38.861Z,3.17
2022-11-06T20:45:06.708Z,3.00
2022-11-06T20:47:33.253Z,3.47
2022-11-06T20:49:59.719Z,3.13
2022-11-06T20:52:26.220Z,3.15
2022-11-06T20:54:52.673Z,2.83
2022-11-06T20:57:19.140Z,2.88
2022-11-06T20:59:45.732Z,3.10
2022-11-06T21:02:12.356Z,2.90
2022-11-06T21:04:41.538Z,3.20
2022-11-06T21:07:07.984Z,3.45
2022-11-06T21:09:34.439Z,2.75
2022-11-06T21:12:00.910Z,3.00
2022-11-06T21:14:27.400Z,3.50
2022-11-06T21:16:57.049Z,3.15
2022-11-06T21:19:24.195Z,3.13
2022-11-06T21:21:56.592Z,3.20
2022-11-06T21:24:23.902Z,3.00
2022-11-06T21:26:55.692Z,2.70
2022-11-06T21:29:23.810Z,3.10
2022-11-06T21:31:51.123Z,3.08
2022-11-06T21:34:20.887Z,3.17
2022-11-06T21:36:47.617Z,3.45
2022-11-06T21:39:16.192Z,2.90
2022-11-06T21:41:42.873Z,2.75
2022-11-06T21:44:13.053Z,3.10
2022-11-06T21:46:45.018Z,2.72
2022-11-06T21:49:11.949Z,2.90
2022-11-06T21:51:44.274Z,3.20
2022-11-06T21:54:30.386Z,3.00
2022-11-06T21:56:57.126Z,3.30
2022-11-06T21:59:25.619Z,3.55
2022-11-06T22:01:52.379Z,3.58
2022-11-06T22:04:18.960Z,3.65
2022-11-06T22:06:45.419Z,3.20
2022-11-06T22:09:13.565Z,3.35
2022-11-06T22:11:42.127Z,3.20
2022-11-06T22:14:12.408Z,2.95
2022-11-06T22:16:40.826Z,2.72
2022-11-06T22:19:08.402Z,2.92
2022-11-06T22:21:36.002Z,2.58
2022-11-06T22:24:05.241Z,2.38
2022-11-06T22:26:33.181Z,2.67
2022-11-06T22:29:01.825Z,2.30
2022-11-06T22:31:29.281Z,2.42
2022-11-06T22:33:55.919Z,2.35
2022-11-06T22:36:23.226Z,2.30
2022-11-06T22:38:51.045Z,2.60
2022-11-06T22:41:20.092Z,2.42
2022-11-06T22:43:46.559Z,2.47
2022-11-06T22:46:15.524Z,2.22
2022-11-06T22:48:42.263Z,2.50
2022-11-06T22:51:11.428Z,2.53
2022-11-06T22:53:38.193Z,2.17
2022-11-06T22:56:05.077Z,2.40
2022-11-06T22:58:32.104Z,2.72
2022-11-06T23:00:58.923Z,2.60
2022-11-06T23:03:27.264Z,2.45
2022-11-06T23:05:57.995Z,2.25
2022-11-06T23:08:25.921Z,2.60
2022-11-06T23:10:52.877Z,2.63
2022-11-06T23:13:19.401Z,2.70
2022-11-06T23:15:46.969Z,2.70
2022-11-06T23:18:13.417Z,2.83
2022-11-06T23:20:39.873Z,2.72
2022-11-06T23:23:06.314Z,2.70
2022-11-06T23:25:33.059Z,2.67
2022-11-06T23:28:00.899Z,3.20
2022-11-06T23:30:30.870Z,3.30
2022-11-06T23:32:57.337Z,3.60
2022-11-06T23:35:26.912Z,3.17
2022-11-06T23:37:57.473Z,3.42
2022-11-06T23:40:24.008Z,3.63
2022-11-06T23:42:51.112Z,3.75
2022-11-06T23:45:38.553Z,3.53
2022-11-06T23:48:08.639Z,4.10
2022-11-06T23:50:35.466Z,4.25
2022-11-06T23:53:01.929Z,4.63
2022-11-06T23:55:31.511Z,4.40
2022-11-06T23:57:58.007Z,4.60
